sensor_id;sensor_type;location;lat;lon;timestamp;P1;durP1;ratioP1;P2;durP2;ratioP2
20619;SDS011;10469;42.720;23.252;2023-02-01T00:01:50;7.50;;;5.43;;
20619;SDS011;10469;42.720;23.252;2023-02-01T00:04:15;11.05;;;5.50;;
20619;SDS011;10469;42.720;23.252;2023-02-01T00:06:41;7.40;;;5.78;;
20619;SDS011;10469;42.720;23.252;2023-02-01T00:09:07;6.25;;;5.20;;
20619;SDS011;10469;42.720;23.252;2023-02-01T00:11:32;8.07;;;5.78;;
20619;SDS011;10469;42.720;23.252;2023-02-01T00:13:59;6.00;;;5.38;;
20619;SDS011;10469;42.720;23.252;2023-02-01T00:16:28;8.93;;;5.68;;
20619;SDS011;10469;42.720;23.252;2023-02-01T00:18:59;7.95;;;5.78;;
20619;SDS011;10469;42.720;23.252;2023-02-01T00:21:27;8.95;;;5.18;;
20619;SDS011;10469;42.720;23.252;2023-02-01T00:23:53;6.15;;;5.25;;
20619;SDS011;10469;42.720;23.252;2023-02-01T00:26:23;7.13;;;5.28;;
20619;SDS011;10469;42.720;23.252;2023-02-01T00:29:01;5.82;;;5.22;;
20619;SDS011;10469;42.720;23.252;2023-02-01T00:31:27;6.50;;;4.65;;
20619;SDS011;10469;42.720;23.252;2023-02-01T00:33:54;5.57;;;4.93;;
20619;SDS011;10469;42.720;23.252;2023-02-01T00:36:19;7.90;;;4.95;;
20619;SDS011;10469;42.720;23.252;2023-02-01T00:38:45;7.55;;;4.93;;
20619;SDS011;10469;42.720;23.252;2023-02-01T00:41:11;8.05;;;4.80;;
20619;SDS011;10469;42.720;23.252;2023-02-01T00:43:39;6.88;;;5.10;;
20619;SDS011;10469;42.720;23.252;2023-02-01T00:46:05;5.88;;;4.50;;
20619;SDS011;10469;42.720;23.252;2023-02-01T00:48:31;5.40;;;4.90;;
20619;SDS011;10469;42.720;23.252;2023-02-01T00:51:03;6.53;;;4.68;;
20619;SDS011;10469;42.720;23.252;2023-02-01T00:53:31;6.32;;;4.82;;
20619;SDS011;10469;42.720;23.252;2023-02-01T00:55:57;6.55;;;4.30;;
20619;SDS011;10469;42.720;23.252;2023-02-01T00:58:23;10.13;;;4.63;;
20619;SDS011;10469;42.720;23.252;2023-02-01T01:00:59;5.88;;;4.63;;
20619;SDS011;10469;42.720;23.252;2023-02-01T01:03:30;11.55;;;5.13;;
20619;SDS011;10469;42.720;23.252;2023-02-01T01:05:58;8.43;;;4.90;;
20619;SDS011;10469;42.720;23.252;2023-02-01T01:08:25;9.65;;;4.93;;
20619;SDS011;10469;42.720;23.252;2023-02-01T01:10:50;9.80;;;4.57;;
20619;SDS011;10469;42.720;23.252;2023-02-01T01:13:16;6.40;;;5.03;;
20619;SDS011;10469;42.720;23.252;2023-02-01T01:15:41;5.07;;;4.30;;
20619;SDS011;10469;42.720;23.252;2023-02-01T01:18:07;8.65;;;4.45;;
20619;SDS011;10469;42.720;23.252;2023-02-01T01:20:37;12.27;;;4.68;;
20619;SDS011;10469;42.720;23.252;2023-02-01T01:23:04;6.20;;;4.35;;
20619;SDS011;10469;42.720;23.252;2023-02-01T01:25:31;4.95;;;4.10;;
20619;SDS011;10469;42.720;23.252;2023-02-01T01:27:56;7.55;;;4.15;;
20619;SDS011;10469;42.720;23.252;2023-02-01T01:30:22;7.40;;;4.53;;
20619;SDS011;10469;42.720;23.252;2023-02-01T01:32:47;6.13;;;3.88;;
20619;SDS011;10469;42.720;23.252;2023-02-01T01:35:13;9.20;;;3.85;;
20619;SDS011;10469;42.720;23.252;2023-02-01T01:37:39;5.32;;;3.83;;
20619;SDS011;10469;42.720;23.252;2023-02-01T01:40:04;7.63;;;3.72;;
20619;SDS011;10469;42.720;23.252;2023-02-01T01:42:36;5.57;;;3.92;;
20619;SDS011;10469;42.720;23.252;2023-02-01T01:45:25;7.63;;;3.90;;
20619;SDS011;10469;42.720;23.252;2023-02-01T01:47:59;4.87;;;3.93;;
20619;SDS011;10469;42.720;23.252;2023-02-01T01:50:37;8.15;;;4.13;;
20619;SDS011;10469;42.720;23.252;2023-02-01T01:53:08;6.55;;;4.38;;
20619;SDS011;10469;42.720;23.252;2023-02-01T01:55:37;5.90;;;3.83;;
20619;SDS011;10469;42.720;23.252;2023-02-01T01:58:09;6.70;;;4.05;;
20619;SDS011;10469;42.720;23.252;2023-02-01T02:00:39;5.25;;;4.13;;
20619;SDS011;10469;42.720;23.252;2023-02-01T02:05:42;7.68;;;4.28;;
20619;SDS011;10469;42.720;23.252;2023-02-01T02:08:09;6.47;;;3.83;;
20619;SDS011;10469;42.720;23.252;2023-02-01T02:10:36;9.18;;;4.45;;
20619;SDS011;10469;42.720;23.252;2023-02-01T02:13:20;8.25;;;4.40;;
20619;SDS011;10469;42.720;23.252;2023-02-01T02:15:50;8.13;;;5.22;;
20619;SDS011;10469;42.720;23.252;2023-02-01T02:18:31;7.70;;;4.53;;
20619;SDS011;10469;42.720;23.252;2023-02-01T02:27:14;5.07;;;3.53;;
20619;SDS011;10469;42.720;23.252;2023-02-01T02:35:34;4.25;;;3.10;;
20619;SDS011;10469;42.720;23.252;2023-02-01T02:43:22;3.97;;;3.08;;
20619;SDS011;10469;42.720;23.252;2023-02-01T02:51:55;6.18;;;3.88;;
20619;SDS011;10469;42.720;23.252;2023-02-01T02:54:46;5.30;;;3.47;;
20619;SDS011;10469;42.720;23.252;2023-02-01T02:57:30;5.88;;;3.97;;
20619;SDS011;10469;42.720;23.252;2023-02-01T03:00:20;4.07;;;2.95;;
20619;SDS011;10469;42.720;23.252;2023-02-01T03:03:08;7.90;;;3.30;;
20619;SDS011;10469;42.720;23.252;2023-02-01T03:05:52;7.07;;;3.03;;
20619;SDS011;10469;42.720;23.252;2023-02-01T03:08:21;6.60;;;3.10;;
20619;SDS011;10469;42.720;23.252;2023-02-01T03:18:42;4.15;;;2.80;;
20619;SDS011;10469;42.720;23.252;2023-02-01T03:21:35;5.70;;;2.80;;
20619;SDS011;10469;42.720;23.252;2023-02-01T03:24:10;6.50;;;2.80;;
20619;SDS011;10469;42.720;23.252;2023-02-01T03:26:58;4.82;;;2.92;;
20619;SDS011;10469;42.720;23.252;2023-02-01T03:32:17;4.25;;;3.00;;
20619;SDS011;10469;42.720;23.252;2023-02-01T03:34:43;4.85;;;2.95;;
20619;SDS011;10469;42.720;23.252;2023-02-01T03:37:10;5.35;;;3.50;;
20619;SDS011;10469;42.720;23.252;2023-02-01T03:39:47;3.83;;;3.22;;
20619;SDS011;10469;42.720;23.252;2023-02-01T03:42:27;5.28;;;3.30;;
20619;SDS011;10469;42.720;23.252;2023-02-01T03:47:37;6.07;;;3.70;;
20619;SDS011;10469;42.720;23.252;2023-02-01T03:50:08;5.18;;;3.40;;
20619;SDS011;10469;42.720;23.252;2023-02-01T03:55:01;5.20;;;3.30;;
20619;SDS011;10469;42.720;23.252;2023-02-01T03:57:29;6.15;;;3.50;;
20619;SDS011;10469;42.720;23.252;2023-02-01T04:00:07;6.57;;;3.75;;
20619;SDS011;10469;42.720;23.252;2023-02-01T04:02:43;6.65;;;3.17;;
20619;SDS011;10469;42.720;23.252;2023-02-01T04:05:09;6.22;;;3.40;;
20619;SDS011;10469;42.720;23.252;2023-02-01T04:07:34;5.85;;;3.60;;
20619;SDS011;10469;42.720;23.252;2023-02-01T04:10:00;6.43;;;3.17;;
20619;SDS011;10469;42.720;23.252;2023-02-01T04:12:25;7.60;;;3.42;;
20619;SDS011;10469;42.720;23.252;2023-02-01T04:14:51;8.70;;;3.63;;
20619;SDS011;10469;42.720;23.252;2023-02-01T04:17:16;5.97;;;3.83;;
20619;SDS011;10469;42.720;23.252;2023-02-01T04:19:42;5.85;;;3.20;;
20619;SDS011;10469;42.720;23.252;2023-02-01T04:22:07;6.40;;;3.63;;
20619;SDS011;10469;42.720;23.252;2023-02-01T04:24:32;4.57;;;3.55;;
20619;SDS011;10469;42.720;23.252;2023-02-01T04:26:58;4.78;;;3.00;;
20619;SDS011;10469;42.720;23.252;2023-02-01T04:29:23;4.60;;;3.53;;
20619;SDS011;10469;42.720;23.252;2023-02-01T04:31:49;5.00;;;3.63;;
20619;SDS011;10469;42.720;23.252;2023-02-01T04:34:14;7.30;;;4.65;;
20619;SDS011;10469;42.720;23.252;2023-02-01T04:36:39;5.03;;;3.28;;
20619;SDS011;10469;42.720;23.252;2023-02-01T04:39:05;4.85;;;3.40;;
20619;SDS011;10469;42.720;23.252;2023-02-01T04:41:30;8.25;;;3.95;;
20619;SDS011;10469;42.720;23.252;2023-02-01T04:43:56;7.05;;;3.90;;
20619;SDS011;10469;42.720;23.252;2023-02-01T04:46:21;5.13;;;3.78;;
20619;SDS011;10469;42.720;23.252;2023-02-01T04:48:46;6.82;;;4.28;;
20619;SDS011;10469;42.720;23.252;2023-02-01T04:51:12;7.35;;;4.90;;
20619;SDS011;10469;42.720;23.252;2023-02-01T04:53:38;7.25;;;4.28;;
20619;SDS011;10469;42.720;23.252;2023-02-01T04:56:03;6.35;;;4.15;;
20619;SDS011;10469;42.720;23.252;2023-02-01T04:58:29;7.75;;;4.32;;
20619;SDS011;10469;42.720;23.252;2023-02-01T05:00:55;10.30;;;4.20;;
20619;SDS011;10469;42.720;23.252;2023-02-01T05:03:20;8.75;;;3.70;;
20619;SDS011;10469;42.720;23.252;2023-02-01T05:05:49;4.90;;;4.00;;
20619;SDS011;10469;42.720;23.252;2023-02-01T05:08:14;10.20;;;4.07;;
20619;SDS011;10469;42.720;23.252;2023-02-01T05:10:40;8.27;;;4.18;;
20619;SDS011;10469;42.720;23.252;2023-02-01T05:13:07;7.15;;;5.03;;
20619;SDS011;10469;42.720;23.252;2023-02-01T05:15:52;9.25;;;5.60;;
20619;SDS011;10469;42.720;23.252;2023-02-01T05:18:17;7.50;;;5.15;;
20619;SDS011;10469;42.720;23.252;2023-02-01T05:20:42;9.65;;;5.57;;
20619;SDS011;10469;42.720;23.252;2023-02-01T05:23:08;7.40;;;4.95;;
20619;SDS011;10469;42.720;23.252;2023-02-01T05:25:33;10.48;;;5.85;;
20619;SDS011;10469;42.720;23.252;2023-02-01T05:27:59;10.13;;;5.00;;
20619;SDS011;10469;42.720;23.252;2023-02-01T05:30:24;8.27;;;5.18;;
20619;SDS011;10469;42.720;23.252;2023-02-01T05:32:52;9.00;;;5.30;;
20619;SDS011;10469;42.720;23.252;2023-02-01T05:35:18;7.28;;;4.95;;
20619;SDS011;10469;42.720;23.252;2023-02-01T05:37:44;9.73;;;4.95;;
20619;SDS011;10469;42.720;23.252;2023-02-01T05:40:10;8.68;;;4.90;;
20619;SDS011;10469;42.720;23.252;2023-02-01T05:42:35;8.60;;;4.72;;
20619;SDS011;10469;42.720;23.252;2023-02-01T05:45:01;7.28;;;4.22;;
20619;SDS011;10469;42.720;23.252;2023-02-01T05:47:27;9.80;;;5.82;;
20619;SDS011;10469;42.720;23.252;2023-02-01T05:49:54;5.32;;;4.07;;
20619;SDS011;10469;42.720;23.252;2023-02-01T05:52:19;6.93;;;4.60;;
20619;SDS011;10469;42.720;23.252;2023-02-01T05:54:45;8.68;;;5.60;;
20619;SDS011;10469;42.720;23.252;2023-02-01T05:57:12;11.00;;;5.38;;
20619;SDS011;10469;42.720;23.252;2023-02-01T05:59:38;11.98;;;6.00;;
20619;SDS011;10469;42.720;23.252;2023-02-01T06:02:09;13.88;;;4.40;;
20619;SDS011;10469;42.720;23.252;2023-02-01T06:04:36;6.70;;;4.47;;
20619;SDS011;10469;42.720;23.252;2023-02-01T06:07:02;8.48;;;4.25;;
20619;SDS011;10469;42.720;23.252;2023-02-01T06:09:27;7.38;;;4.55;;
20619;SDS011;10469;42.720;23.252;2023-02-01T06:11:53;6.30;;;3.92;;
20619;SDS011;10469;42.720;23.252;2023-02-01T06:14:19;7.97;;;4.43;;
20619;SDS011;10469;42.720;23.252;2023-02-01T06:16:45;11.40;;;4.82;;
20619;SDS011;10469;42.720;23.252;2023-02-01T06:19:11;9.07;;;4.93;;
20619;SDS011;10469;42.720;23.252;2023-02-01T06:21:37;8.60;;;4.80;;
20619;SDS011;10469;42.720;23.252;2023-02-01T06:24:03;7.00;;;5.47;;
20619;SDS011;10469;42.720;23.252;2023-02-01T06:26:29;11.27;;;4.55;;
20619;SDS011;10469;42.720;23.252;2023-02-01T06:28:55;7.88;;;4.20;;
20619;SDS011;10469;42.720;23.252;2023-02-01T06:31:20;6.85;;;4.80;;
20619;SDS011;10469;42.720;23.252;2023-02-01T06:33:46;11.35;;;5.07;;
20619;SDS011;10469;42.720;23.252;2023-02-01T06:36:12;8.23;;;4.78;;
20619;SDS011;10469;42.720;23.252;2023-02-01T06:38:38;9.57;;;4.93;;
20619;SDS011;10469;42.720;23.252;2023-02-01T06:41:04;8.00;;;4.20;;
20619;SDS011;10469;42.720;23.252;2023-02-01T06:43:30;7.38;;;4.70;;
20619;SDS011;10469;42.720;23.252;2023-02-01T06:46:01;5.00;;;3.78;;
20619;SDS011;10469;42.720;23.252;2023-02-01T06:48:28;6.30;;;4.30;;
20619;SDS011;10469;42.720;23.252;2023-02-01T06:50:54;10.90;;;4.88;;
20619;SDS011;10469;42.720;23.252;2023-02-01T06:53:19;7.40;;;4.18;;
20619;SDS011;10469;42.720;23.252;2023-02-01T06:56:00;7.90;;;4.53;;
20619;SDS011;10469;42.720;23.252;2023-02-01T06:58:30;14.52;;;4.70;;
20619;SDS011;10469;42.720;23.252;2023-02-01T07:00:57;8.75;;;4.85;;
20619;SDS011;10469;42.720;23.252;2023-02-01T07:03:23;7.25;;;4.78;;
20619;SDS011;10469;42.720;23.252;2023-02-01T07:05:49;6.80;;;3.83;;
20619;SDS011;10469;42.720;23.252;2023-02-01T07:08:14;11.45;;;4.43;;
20619;SDS011;10469;42.720;23.252;2023-02-01T07:10:40;13.57;;;4.40;;
20619;SDS011;10469;42.720;23.252;2023-02-01T07:13:05;12.40;;;5.25;;
20619;SDS011;10469;42.720;23.252;2023-02-01T07:15:31;28.13;;;5.45;;
20619;SDS011;10469;42.720;23.252;2023-02-01T07:17:56;8.52;;;4.05;;
20619;SDS011;10469;42.720;23.252;2023-02-01T07:20:22;13.40;;;4.72;;
20619;SDS011;10469;42.720;23.252;2023-02-01T07:22:48;6.07;;;3.65;;
20619;SDS011;10469;42.720;23.252;2023-02-01T07:25:13;5.60;;;3.20;;
20619;SDS011;10469;42.720;23.252;2023-02-01T07:27:39;7.47;;;3.58;;
20619;SDS011;10469;42.720;23.252;2023-02-01T07:30:05;4.03;;;2.88;;
20619;SDS011;10469;42.720;23.252;2023-02-01T07:32:31;9.98;;;3.88;;
20619;SDS011;10469;42.720;23.252;2023-02-01T07:34:56;7.55;;;4.30;;
20619;SDS011;10469;42.720;23.252;2023-02-01T07:37:22;7.85;;;3.80;;
20619;SDS011;10469;42.720;23.252;2023-02-01T07:39:49;10.05;;;4.63;;
20619;SDS011;10469;42.720;23.252;2023-02-01T07:42:15;10.43;;;3.92;;
20619;SDS011;10469;42.720;23.252;2023-02-01T07:44:40;14.18;;;3.83;;
20619;SDS011;10469;42.720;23.252;2023-02-01T07:47:06;8.80;;;4.30;;
20619;SDS011;10469;42.720;23.252;2023-02-01T07:49:31;7.00;;;3.65;;
20619;SDS011;10469;42.720;23.252;2023-02-01T07:51:59;7.88;;;4.65;;
20619;SDS011;10469;42.720;23.252;2023-02-01T07:54:24;8.75;;;3.80;;
20619;SDS011;10469;42.720;23.252;2023-02-01T07:56:50;16.45;;;4.00;;
20619;SDS011;10469;42.720;23.252;2023-02-01T07:59:15;13.88;;;4.22;;
20619;SDS011;10469;42.720;23.252;2023-02-01T08:01:41;7.38;;;3.65;;
20619;SDS011;10469;42.720;23.252;2023-02-01T08:04:07;10.80;;;3.90;;
20619;SDS011;10469;42.720;23.252;2023-02-01T08:06:36;10.35;;;4.63;;
20619;SDS011;10469;42.720;23.252;2023-02-01T08:09:02;9.10;;;4.20;;
20619;SDS011;10469;42.720;23.252;2023-02-01T08:11:28;10.88;;;4.50;;
20619;SDS011;10469;42.720;23.252;2023-02-01T08:13:54;10.65;;;4.30;;
20619;SDS011;10469;42.720;23.252;2023-02-01T08:16:20;9.63;;;4.68;;
20619;SDS011;10469;42.720;23.252;2023-02-01T08:18:46;10.30;;;4.70;;
20619;SDS011;10469;42.720;23.252;2023-02-01T08:21:13;4.80;;;3.97;;
20619;SDS011;10469;42.720;23.252;2023-02-01T08:23:43;8.55;;;4.05;;
20619;SDS011;10469;42.720;23.252;2023-02-01T08:28:35;8.20;;;3.40;;
20619;SDS011;10469;42.720;23.252;2023-02-01T08:31:08;6.85;;;3.97;;
20619;SDS011;10469;42.720;23.252;2023-02-01T08:33:35;8.63;;;4.25;;
20619;SDS011;10469;42.720;23.252;2023-02-01T08:36:02;9.02;;;4.05;;
20619;SDS011;10469;42.720;23.252;2023-02-01T08:38:29;6.00;;;3.95;;
20619;SDS011;10469;42.720;23.252;2023-02-01T08:40:55;19.45;;;4.60;;
20619;SDS011;10469;42.720;23.252;2023-02-01T08:43:20;6.57;;;3.60;;
20619;SDS011;10469;42.720;23.252;2023-02-01T08:45:46;13.73;;;4.13;;
20619;SDS011;10469;42.720;23.252;2023-02-01T08:48:11;14.98;;;5.28;;
20619;SDS011;10469;42.720;23.252;2023-02-01T08:50:37;9.73;;;3.28;;
20619;SDS011;10469;42.720;23.252;2023-02-01T08:53:06;13.13;;;2.75;;
20619;SDS011;10469;42.720;23.252;2023-02-01T08:55:31;13.88;;;2.95;;
20619;SDS011;10469;42.720;23.252;2023-02-01T08:57:57;3.60;;;2.72;;
20619;SDS011;10469;42.720;23.252;2023-02-01T09:00:22;17.40;;;3.75;;
20619;SDS011;10469;42.720;23.252;2023-02-01T09:02:48;8.23;;;3.72;;
20619;SDS011;10469;42.720;23.252;2023-02-01T09:05:13;10.80;;;3.47;;
20619;SDS011;10469;42.720;23.252;2023-02-01T09:07:41;9.93;;;3.58;;
20619;SDS011;10469;42.720;23.252;2023-02-01T09:10:07;9.07;;;3.40;;
20619;SDS011;10469;42.720;23.252;2023-02-01T09:12:33;13.75;;;4.47;;
20619;SDS011;10469;42.720;23.252;2023-02-01T09:14:59;12.00;;;3.80;;
20619;SDS011;10469;42.720;23.252;2023-02-01T09:17:28;16.00;;;4.43;;
20619;SDS011;10469;42.720;23.252;2023-02-01T09:19:54;47.63;;;6.25;;
20619;SDS011;10469;42.720;23.252;2023-02-01T09:22:20;11.88;;;3.40;;
20619;SDS011;10469;42.720;23.252;2023-02-01T09:24:45;9.90;;;4.35;;
20619;SDS011;10469;42.720;23.252;2023-02-01T09:27:11;23.58;;;4.22;;
20619;SDS011;10469;42.720;23.252;2023-02-01T09:29:36;8.77;;;3.40;;
20619;SDS011;10469;42.720;23.252;2023-02-01T09:32:02;11.75;;;4.40;;
20619;SDS011;10469;42.720;23.252;2023-02-01T09:34:27;11.10;;;4.00;;
20619;SDS011;10469;42.720;23.252;2023-02-01T09:36:54;5.82;;;2.42;;
20619;SDS011;10469;42.720;23.252;2023-02-01T09:39:20;11.15;;;4.05;;
20619;SDS011;10469;42.720;23.252;2023-02-01T09:42:00;6.13;;;3.58;;
20619;SDS011;10469;42.720;23.252;2023-02-01T09:47:19;11.43;;;4.30;;
20619;SDS011;10469;42.720;23.252;2023-02-01T09:50:11;7.55;;;3.80;;
20619;SDS011;10469;42.720;23.252;2023-02-01T09:55:39;5.38;;;2.72;;
20619;SDS011;10469;42.720;23.252;2023-02-01T09:58:19;8.43;;;3.45;;
20619;SDS011;10469;42.720;23.252;2023-02-01T10:00:57;6.53;;;2.95;;
20619;SDS011;10469;42.720;23.252;2023-02-01T10:03:25;9.23;;;3.55;;
20619;SDS011;10469;42.720;23.252;2023-02-01T10:09:03;6.63;;;3.33;;
20619;SDS011;10469;42.720;23.252;2023-02-01T10:22:31;14.82;;;3.35;;
20619;SDS011;10469;42.720;23.252;2023-02-01T10:25:03;5.20;;;2.92;;
20619;SDS011;10469;42.720;23.252;2023-02-01T10:27:51;7.23;;;3.47;;
20619;SDS011;10469;42.720;23.252;2023-02-01T10:32:43;7.13;;;3.60;;
20619;SDS011;10469;42.720;23.252;2023-02-01T10:35:15;10.55;;;3.30;;
20619;SDS011;10469;42.720;23.252;2023-02-01T10:37:43;7.13;;;3.67;;
20619;SDS011;10469;42.720;23.252;2023-02-01T10:40:19;12.38;;;3.45;;
20619;SDS011;10469;42.720;23.252;2023-02-01T10:42:47;5.32;;;3.50;;
20619;SDS011;10469;42.720;23.252;2023-02-01T10:45:16;7.28;;;2.85;;
20619;SDS011;10469;42.720;23.252;2023-02-01T10:47:44;8.45;;;3.50;;
20619;SDS011;10469;42.720;23.252;2023-02-01T10:52:45;6.78;;;3.85;;
20619;SDS011;10469;42.720;23.252;2023-02-01T10:58:01;11.18;;;4.40;;
20619;SDS011;10469;42.720;23.252;2023-02-01T11:33:46;8.75;;;2.60;;
20619;SDS011;10469;42.720;23.252;2023-02-01T11:36:16;3.85;;;2.45;;
20619;SDS011;10469;42.720;23.252;2023-02-01T11:38:51;5.85;;;2.72;;
20619;SDS011;10469;42.720;23.252;2023-02-01T11:44:36;4.50;;;2.50;;
20619;SDS011;10469;42.720;23.252;2023-02-01T11:47:38;6.15;;;2.20;;
20619;SDS011;10469;42.720;23.252;2023-02-01T11:50:05;3.93;;;2.00;;
20619;SDS011;10469;42.720;23.252;2023-02-01T12:01:32;3.42;;;2.50;;
20619;SDS011;10469;42.720;23.252;2023-02-01T12:09:26;5.95;;;3.05;;
20619;SDS011;10469;42.720;23.252;2023-02-01T12:12:01;3.75;;;2.22;;
20619;SDS011;10469;42.720;23.252;2023-02-01T12:18:08;4.10;;;2.78;;
20619;SDS011;10469;42.720;23.252;2023-02-01T12:23:32;3.40;;;2.22;;
20619;SDS011;10469;42.720;23.252;2023-02-01T12:26:08;4.35;;;2.65;;
20619;SDS011;10469;42.720;23.252;2023-02-01T12:31:43;1.98;;;1.77;;
20619;SDS011;10469;42.720;23.252;2023-02-01T12:39:31;5.03;;;2.22;;
20619;SDS011;10469;42.720;23.252;2023-02-01T12:44:43;6.75;;;2.22;;
20619;SDS011;10469;42.720;23.252;2023-02-01T12:49:48;5.22;;;2.17;;
20619;SDS011;10469;42.720;23.252;2023-02-01T12:55:31;5.18;;;1.80;;
20619;SDS011;10469;42.720;23.252;2023-02-01T12:58:06;3.75;;;2.08;;
20619;SDS011;10469;42.720;23.252;2023-02-01T13:00:45;7.45;;;1.92;;
20619;SDS011;10469;42.720;23.252;2023-02-01T13:06:07;5.63;;;2.20;;
20619;SDS011;10469;42.720;23.252;2023-02-01T13:11:13;4.60;;;2.10;;
20619;SDS011;10469;42.720;23.252;2023-02-01T13:16:16;4.00;;;2.30;;
20619;SDS011;10469;42.720;23.252;2023-02-01T13:18:55;5.30;;;1.95;;
20619;SDS011;10469;42.720;23.252;2023-02-01T13:21:30;2.53;;;1.95;;
20619;SDS011;10469;42.720;23.252;2023-02-01T13:24:00;5.50;;;2.22;;
20619;SDS011;10469;42.720;23.252;2023-02-01T13:26:26;3.00;;;2.13;;
20619;SDS011;10469;42.720;23.252;2023-02-01T13:28:53;3.00;;;2.10;;
20619;SDS011;10469;42.720;23.252;2023-02-01T13:31:33;2.70;;;1.98;;
20619;SDS011;10469;42.720;23.252;2023-02-01T13:37:57;3.20;;;2.40;;
20619;SDS011;10469;42.720;23.252;2023-02-01T13:43:13;8.10;;;2.58;;
20619;SDS011;10469;42.720;23.252;2023-02-01T13:45:48;3.03;;;2.25;;
20619;SDS011;10469;42.720;23.252;2023-02-01T13:48:27;3.45;;;2.20;;
20619;SDS011;10469;42.720;23.252;2023-02-01T13:50:59;3.97;;;2.33;;
20619;SDS011;10469;42.720;23.252;2023-02-01T13:53:27;9.68;;;2.03;;
20619;SDS011;10469;42.720;23.252;2023-02-01T13:55:57;3.40;;;2.20;;
20619;SDS011;10469;42.720;23.252;2023-02-01T13:58:32;3.97;;;2.03;;
20619;SDS011;10469;42.720;23.252;2023-02-01T14:03:56;8.23;;;2.30;;
20619;SDS011;10469;42.720;23.252;2023-02-01T14:19:29;5.20;;;2.75;;
20619;SDS011;10469;42.720;23.252;2023-02-01T14:21:58;11.25;;;3.30;;
20619;SDS011;10469;42.720;23.252;2023-02-01T14:24:32;5.03;;;2.95;;
20619;SDS011;10469;42.720;23.252;2023-02-01T14:27:00;5.53;;;2.63;;
20619;SDS011;10469;42.720;23.252;2023-02-01T14:29:51;4.85;;;2.45;;
20619;SDS011;10469;42.720;23.252;2023-02-01T14:32:44;7.85;;;2.70;;
20619;SDS011;10469;42.720;23.252;2023-02-01T14:35:18;4.30;;;2.55;;
20619;SDS011;10469;42.720;23.252;2023-02-01T14:37:46;6.00;;;2.63;;
20619;SDS011;10469;42.720;23.252;2023-02-01T14:40:23;4.90;;;2.65;;
20619;SDS011;10469;42.720;23.252;2023-02-01T14:42:51;5.22;;;2.40;;
20619;SDS011;10469;42.720;23.252;2023-02-01T14:47:53;9.23;;;2.55;;
20619;SDS011;10469;42.720;23.252;2023-02-01T14:58:14;7.47;;;2.83;;
20619;SDS011;10469;42.720;23.252;2023-02-01T15:01:46;7.90;;;3.08;;
20619;SDS011;10469;42.720;23.252;2023-02-01T15:03:49;7.57;;;3.65;;
20619;SDS011;10469;42.720;23.252;2023-02-01T15:06:39;8.85;;;3.95;;
20619;SDS011;10469;42.720;23.252;2023-02-01T15:09:09;6.65;;;3.90;;
20619;SDS011;10469;42.720;23.252;2023-02-01T15:14:26;7.45;;;3.85;;
20619;SDS011;10469;42.720;23.252;2023-02-01T15:16:57;11.95;;;4.22;;
20619;SDS011;10469;42.720;23.252;2023-02-01T15:19:28;11.02;;;4.60;;
20619;SDS011;10469;42.720;23.252;2023-02-01T15:21:56;13.07;;;5.22;;
20619;SDS011;10469;42.720;23.252;2023-02-01T15:24:24;10.50;;;5.38;;
20619;SDS011;10469;42.720;23.252;2023-02-01T15:26:51;10.57;;;4.63;;
20619;SDS011;10469;42.720;23.252;2023-02-01T15:29:17;15.20;;;4.88;;
20619;SDS011;10469;42.720;23.252;2023-02-01T15:31:46;8.73;;;3.45;;
20619;SDS011;10469;42.720;23.252;2023-02-01T15:34:16;6.18;;;4.30;;
20619;SDS011;10469;42.720;23.252;2023-02-01T15:36:43;6.63;;;3.47;;
20619;SDS011;10469;42.720;23.252;2023-02-01T15:39:24;14.73;;;3.47;;
20619;SDS011;10469;42.720;23.252;2023-02-01T15:41:56;7.65;;;4.05;;
20619;SDS011;10469;42.720;23.252;2023-02-01T15:47:10;6.65;;;3.63;;
20619;SDS011;10469;42.720;23.252;2023-02-01T15:49:40;7.80;;;3.70;;
20619;SDS011;10469;42.720;23.252;2023-02-01T15:52:21;8.02;;;3.83;;
20619;SDS011;10469;42.720;23.252;2023-02-01T15:54:58;9.13;;;4.05;;
20619;SDS011;10469;42.720;23.252;2023-02-01T15:57:27;8.82;;;3.65;;
20619;SDS011;10469;42.720;23.252;2023-02-01T15:59:58;6.85;;;3.42;;
20619;SDS011;10469;42.720;23.252;2023-02-01T16:02:52;6.50;;;3.10;;
20619;SDS011;10469;42.720;23.252;2023-02-01T16:08:00;5.20;;;2.85;;
20619;SDS011;10469;42.720;23.252;2023-02-01T16:10:29;6.15;;;2.70;;
20619;SDS011;10469;42.720;23.252;2023-02-01T16:12:55;15.80;;;3.15;;
20619;SDS011;10469;42.720;23.252;2023-02-01T16:15:25;8.65;;;4.07;;
20619;SDS011;10469;42.720;23.252;2023-02-01T16:17:51;19.13;;;4.70;;
20619;SDS011;10469;42.720;23.252;2023-02-01T16:20:16;9.70;;;5.95;;
20619;SDS011;10469;42.720;23.252;2023-02-01T16:22:42;9.15;;;4.07;;
20619;SDS011;10469;42.720;23.252;2023-02-01T16:25:08;9.98;;;3.60;;
20619;SDS011;10469;42.720;23.252;2023-02-01T16:27:33;5.55;;;3.58;;
20619;SDS011;10469;42.720;23.252;2023-02-01T16:29:58;7.30;;;3.28;;
20619;SDS011;10469;42.720;23.252;2023-02-01T16:32:24;5.75;;;3.63;;
20619;SDS011;10469;42.720;23.252;2023-02-01T16:34:51;5.53;;;3.13;;
20619;SDS011;10469;42.720;23.252;2023-02-01T16:37:22;6.68;;;3.10;;
20619;SDS011;10469;42.720;23.252;2023-02-01T16:39:50;5.65;;;3.28;;
20619;SDS011;10469;42.720;23.252;2023-02-01T16:42:16;5.32;;;3.00;;
20619;SDS011;10469;42.720;23.252;2023-02-01T16:44:42;7.82;;;3.38;;
20619;SDS011;10469;42.720;23.252;2023-02-01T16:47:17;9.25;;;3.25;;
20619;SDS011;10469;42.720;23.252;2023-02-01T16:49:46;6.68;;;3.17;;
20619;SDS011;10469;42.720;23.252;2023-02-01T16:52:17;16.60;;;3.85;;
20619;SDS011;10469;42.720;23.252;2023-02-01T16:54:45;11.68;;;3.80;;
20619;SDS011;10469;42.720;23.252;2023-02-01T16:57:12;6.63;;;3.58;;
20619;SDS011;10469;42.720;23.252;2023-02-01T16:59:41;7.30;;;3.30;;
20619;SDS011;10469;42.720;23.252;2023-02-01T17:02:13;5.55;;;3.22;;
20619;SDS011;10469;42.720;23.252;2023-02-01T17:04:42;9.47;;;3.60;;
20619;SDS011;10469;42.720;23.252;2023-02-01T17:07:14;8.98;;;3.78;;
20619;SDS011;10469;42.720;23.252;2023-02-01T17:09:41;10.40;;;5.10;;
20619;SDS011;10469;42.720;23.252;2023-02-01T17:12:09;11.00;;;5.93;;
20619;SDS011;10469;42.720;23.252;2023-02-01T17:14:46;15.10;;;6.90;;
20619;SDS011;10469;42.720;23.252;2023-02-01T17:17:11;25.27;;;8.65;;
20619;SDS011;10469;42.720;23.252;2023-02-01T17:19:37;15.65;;;8.43;;
20619;SDS011;10469;42.720;23.252;2023-02-01T17:22:02;10.23;;;5.72;;
20619;SDS011;10469;42.720;23.252;2023-02-01T17:24:29;5.85;;;3.70;;
20619;SDS011;10469;42.720;23.252;2023-02-01T17:27:16;8.00;;;3.45;;
20619;SDS011;10469;42.720;23.252;2023-02-01T17:29:43;7.65;;;3.20;;
20619;SDS011;10469;42.720;23.252;2023-02-01T17:32:18;4.07;;;3.05;;
20619;SDS011;10469;42.720;23.252;2023-02-01T17:34:46;5.35;;;2.60;;
20619;SDS011;10469;42.720;23.252;2023-02-01T17:37:28;3.65;;;2.70;;
20619;SDS011;10469;42.720;23.252;2023-02-01T17:42:22;2.33;;;2.00;;
20619;SDS011;10469;42.720;23.252;2023-02-01T17:44:49;4.35;;;2.33;;
20619;SDS011;10469;42.720;23.252;2023-02-01T17:47:36;5.35;;;2.85;;
20619;SDS011;10469;42.720;23.252;2023-02-01T17:50:03;2.85;;;2.30;;
20619;SDS011;10469;42.720;23.252;2023-02-01T17:52:28;10.15;;;2.80;;
20619;SDS011;10469;42.720;23.252;2023-02-01T17:54:56;4.97;;;2.50;;
20619;SDS011;10469;42.720;23.252;2023-02-01T17:57:21;10.90;;;2.75;;
20619;SDS011;10469;42.720;23.252;2023-02-01T17:59:46;4.72;;;2.28;;
20619;SDS011;10469;42.720;23.252;2023-02-01T18:02:19;5.10;;;2.38;;